createdAt,value
2022-09-30T00:02:12.898Z,4.28
2022-09-30T00:04:39.971Z,4.50
2022-09-30T00:07:13.639Z,4.07
2022-09-30T00:09:46.658Z,3.78
2022-09-30T00:12:19.631Z,3.72
2022-09-30T00:14:46.404Z,4.57
2022-09-30T00:17:19.667Z,4.00
2022-09-30T00:19:47.831Z,4.20
2022-09-30T00:22:21.662Z,4.00
2022-09-30T00:24:48.712Z,3.95
2022-09-30T00:27:24.677Z,3.85
2022-09-30T00:29:51.557Z,4.20
2022-09-30T00:32:24.657Z,3.95
2022-09-30T00:34:51.572Z,3.97
2022-09-30T00:37:18.404Z,3.90
2022-09-30T00:39:51.652Z,4.10
2022-09-30T00:42:19.550Z,4.15
2022-09-30T00:44:57.670Z,3.88
2022-09-30T00:47:39.190Z,3.85
2022-09-30T00:50:30.696Z,3.70
2022-09-30T00:53:06.200Z,3.90
2022-09-30T00:55:54.697Z,3.60
2022-09-30T00:58:37.492Z,3.50
2022-09-30T01:01:18.720Z,3.45
2022-09-30T01:03:58.683Z,3.83
2022-09-30T01:06:31.712Z,3.55
2022-09-30T01:08:58.820Z,4.03
2022-09-30T01:11:34.694Z,4.10
2022-09-30T01:14:19.819Z,3.90
2022-09-30T01:17:02.705Z,4.53
2022-09-30T01:19:43.638Z,4.75
2022-09-30T01:22:54.752Z,4.85
2022-09-30T01:25:58.169Z,4.25
2022-09-30T01:29:18.795Z,4.57
2022-09-30T01:32:11.726Z,4.75
2022-09-30T01:37:11.089Z,4.47
2022-09-30T01:39:49.803Z,5.35
2022-09-30T01:42:51.736Z,5.53
2022-09-30T01:45:20.796Z,5.38
2022-09-30T01:47:59.773Z,5.10
2022-09-30T01:50:57.746Z,5.30
2022-09-30T01:53:52.813Z,5.28
2022-09-30T01:56:32.191Z,5.68
2022-09-30T01:59:26.807Z,6.20
2022-09-30T02:02:02.990Z,5.30
2022-09-30T02:04:42.809Z,5.63
2022-09-30T02:07:25.833Z,5.53
2022-09-30T02:10:07.799Z,4.95
2022-09-30T02:12:48.811Z,4.82
2022-09-30T02:15:21.988Z,5.40
2022-09-30T02:18:27.830Z,5.00
2022-09-30T02:21:00.409Z,4.97
2022-09-30T02:23:38.986Z,5.82
2022-09-30T02:26:23.535Z,6.00
2022-09-30T02:29:02.851Z,6.32
2022-09-30T02:31:40.934Z,6.63
2022-09-30T02:34:10.467Z,6.13
2022-09-30T02:36:53.856Z,5.82
2022-09-30T02:39:50.772Z,5.90
2022-09-30T02:42:28.836Z,6.30
2022-09-30T02:45:02.350Z,5.80
2022-09-30T02:47:40.870Z,6.18
2022-09-30T02:50:23.989Z,6.18
2022-09-30T02:53:18.894Z,5.57
2022-09-30T02:56:26.855Z,5.95
2022-09-30T02:58:57.268Z,6.07
2022-09-30T03:01:31.908Z,6.35
2022-09-30T03:04:07.093Z,5.88
2022-09-30T03:06:42.902Z,6.28
2022-09-30T03:09:10.321Z,6.15
2022-09-30T03:11:38.319Z,6.18
2022-09-30T03:14:42.913Z,5.97
2022-09-30T03:17:32.975Z,6.57
2022-09-30T03:20:19.893Z,6.35
2022-09-30T03:23:01.895Z,6.43
2022-09-30T03:25:40.996Z,5.63
2022-09-30T03:28:31.929Z,5.95
2022-09-30T03:31:23.010Z,6.85
2022-09-30T03:34:02.789Z,5.60
2022-09-30T03:36:44.929Z,5.40
2022-09-30T03:39:42.923Z,5.60
2022-09-30T03:42:35.925Z,5.68
2022-09-30T03:45:24.594Z,6.07
2022-09-30T03:48:00.954Z,6.25
2022-09-30T03:50:29.214Z,6.60
2022-09-30T03:53:02.977Z,6.20
2022-09-30T03:55:37.967Z,6.82
2022-09-30T03:58:10.959Z,7.25
2022-09-30T04:00:45.662Z,5.97
2022-09-30T04:03:18.993Z,6.85
2022-09-30T04:05:53.953Z,7.38
2022-09-30T04:08:29.760Z,6.45
2022-09-30T04:11:05.033Z,5.72
2022-09-30T04:13:38.964Z,6.10
2022-09-30T04:16:15.059Z,6.28
2022-09-30T04:18:42.279Z,6.85
2022-09-30T04:21:10.852Z,6.78
2022-09-30T04:23:46.020Z,6.50
2022-09-30T04:26:21.999Z,6.00
2022-09-30T04:28:49.079Z,5.47
2022-09-30T04:31:28.104Z,6.70
2022-09-30T04:34:04.042Z,6.72
2022-09-30T04:36:30.802Z,6.30
2022-09-30T04:38:57.924Z,6.95
2022-09-30T04:41:32.039Z,6.35
2022-09-30T04:44:05.988Z,6.25
2022-09-30T04:46:43.033Z,6.03
2022-09-30T04:49:09.795Z,5.72
2022-09-30T04:51:45.034Z,5.15
2022-09-30T04:54:19.086Z,6.30
2022-09-30T04:56:52.049Z,6.22
2022-09-30T04:59:25.120Z,5.85
2022-09-30T05:01:51.866Z,6.00
2022-09-30T05:04:25.052Z,6.20
2022-09-30T05:06:58.046Z,6.68
2022-09-30T05:09:31.112Z,5.93
2022-09-30T05:11:57.863Z,6.05
2022-09-30T05:14:31.134Z,6.15
2022-09-30T05:16:57.883Z,5.82
2022-09-30T05:19:32.110Z,5.78
2022-09-30T05:21:59.135Z,6.55
2022-09-30T05:24:32.107Z,5.70
2022-09-30T05:26:58.816Z,5.45
2022-09-30T05:29:32.096Z,6.03
2022-09-30T05:32:05.125Z,5.13
2022-09-30T05:34:38.133Z,5.47
2022-09-30T05:37:13.196Z,5.78
2022-09-30T05:39:39.885Z,5.35
2022-09-30T05:42:08.894Z,5.75
2022-09-30T05:44:44.162Z,5.78
2022-09-30T05:47:18.156Z,5.32
2022-09-30T05:49:46.168Z,5.60
2022-09-30T05:52:15.008Z,5.45
2022-09-30T05:54:49.135Z,5.50
2022-09-30T05:57:16.057Z,5.10
2022-09-30T05:59:50.182Z,5.72
2022-09-30T06:02:17.012Z,6.00
2022-09-30T06:04:43.810Z,6.78
2022-09-30T06:07:17.213Z,6.50
2022-09-30T06:09:44.087Z,6.15
2022-09-30T06:12:17.168Z,5.97
2022-09-30T06:14:50.204Z,5.75
2022-09-30T06:17:25.293Z,5.07
2022-09-30T06:19:58.186Z,5.40
2022-09-30T06:22:25.357Z,5.63
2022-09-30T06:24:58.204Z,6.15
2022-09-30T06:27:25.117Z,5.40
2022-09-30T06:29:58.197Z,5.25
2022-09-30T06:32:26.317Z,5.38
2022-09-30T06:34:55.709Z,5.65
2022-09-30T06:37:29.198Z,5.57
2022-09-30T06:40:02.222Z,5.20
2022-09-30T06:42:29.009Z,5.60
2022-09-30T06:45:03.264Z,6.50
2022-09-30T06:47:38.587Z,5.63
2022-09-30T06:50:21.472Z,7.57
2022-09-30T06:52:51.545Z,5.03
2022-09-30T06:55:25.245Z,7.68
2022-09-30T06:57:51.956Z,8.65
2022-09-30T07:00:25.373Z,6.55
2022-09-30T07:02:57.336Z,9.23
2022-09-30T07:05:37.238Z,8.80
2022-09-30T07:08:04.269Z,8.88
2022-09-30T07:10:37.254Z,10.18
2022-09-30T07:13:04.023Z,10.73
2022-09-30T07:15:30.777Z,9.60
2022-09-30T07:18:04.339Z,10.20
2022-09-30T07:20:31.126Z,8.35
2022-09-30T07:22:58.845Z,10.55
2022-09-30T07:25:32.324Z,10.70
2022-09-30T07:27:59.157Z,9.40
2022-09-30T07:30:32.315Z,9.15
2022-09-30T07:32:59.395Z,7.53
2022-09-30T07:35:33.353Z,10.85
2022-09-30T07:38:01.269Z,10.35
2022-09-30T07:40:38.309Z,8.50
2022-09-30T07:43:05.721Z,10.18
2022-09-30T07:45:39.446Z,9.02
2022-09-30T07:48:26.287Z,9.13
2022-09-30T07:51:00.387Z,7.65
2022-09-30T07:53:27.197Z,8.43
2022-09-30T07:56:00.329Z,6.57
2022-09-30T07:58:33.565Z,7.40
2022-09-30T08:01:00.577Z,7.82
2022-09-30T08:03:34.390Z,8.40
2022-09-30T08:06:09.540Z,8.15
2022-09-30T08:08:44.420Z,7.65
2022-09-30T08:11:12.428Z,9.13
2022-09-30T08:13:46.363Z,8.55
2022-09-30T08:16:14.182Z,8.77
2022-09-30T08:18:47.423Z,9.57
2022-09-30T08:21:14.903Z,12.00
2022-09-30T08:23:48.391Z,10.32
2022-09-30T08:26:16.470Z,10.52
2022-09-30T08:28:53.366Z,10.50
2022-09-30T08:31:23.317Z,11.35
2022-09-30T08:33:57.397Z,8.85
2022-09-30T08:36:25.847Z,7.93
2022-09-30T08:38:59.450Z,6.43
2022-09-30T08:42:09.231Z,6.78
2022-09-30T08:44:50.765Z,8.52
2022-09-30T08:47:53.449Z,10.98
2022-09-30T08:50:31.625Z,9.88
2022-09-30T08:53:14.421Z,7.85
2022-09-30T08:55:52.433Z,9.00
2022-09-30T08:58:28.146Z,8.45
2022-09-30T09:01:12.541Z,9.80
2022-09-30T09:03:41.906Z,7.53
2022-09-30T09:06:23.485Z,6.78
2022-09-30T09:09:22.737Z,6.40
2022-09-30T09:12:14.481Z,7.70
2022-09-30T09:15:01.545Z,8.90
2022-09-30T09:18:21.437Z,6.90
2022-09-30T09:23:45.043Z,8.13
2022-09-30T09:26:22.566Z,6.32
2022-09-30T09:29:11.693Z,6.95
2022-09-30T09:31:47.651Z,7.30
2022-09-30T09:34:15.812Z,7.55
2022-09-30T09:37:54.535Z,6.35
2022-09-30T09:40:48.649Z,5.28
2022-09-30T09:43:33.318Z,4.65
2022-09-30T09:46:21.601Z,4.10
2022-09-30T09:48:49.222Z,4.35
2022-09-30T09:51:33.524Z,3.20
2022-09-30T09:54:01.933Z,3.25
2022-09-30T09:56:32.417Z,3.55
2022-09-30T09:59:23.920Z,3.50
2022-09-30T10:02:00.583Z,3.17
2022-09-30T10:04:30.559Z,2.50
2022-09-30T10:07:06.598Z,2.78
2022-09-30T10:09:41.594Z,2.80
2022-09-30T10:12:14.598Z,1.83
2022-09-30T10:15:02.316Z,2.60
2022-09-30T10:17:43.590Z,1.98
2022-09-30T10:20:19.370Z,2.22
2022-09-30T10:22:54.574Z,2.67
2022-09-30T10:25:26.244Z,2.03
2022-09-30T10:28:03.709Z,2.03
2022-09-30T10:30:38.961Z,2.22
2022-09-30T10:33:25.626Z,2.30
2022-09-30T10:36:09.398Z,1.70
2022-09-30T10:38:51.579Z,1.65
2022-09-30T10:41:26.576Z,1.30
2022-09-30T10:44:02.634Z,1.08
2022-09-30T10:46:40.725Z,1.33
2022-09-30T10:49:34.596Z,1.40
2022-09-30T10:52:02.665Z,1.80
2022-09-30T10:54:56.632Z,1.38
2022-09-30T10:57:31.643Z,1.17
2022-09-30T11:00:08.659Z,0.98
2022-09-30T11:02:55.048Z,1.20
2022-09-30T11:05:31.656Z,1.10
2022-09-30T11:08:11.684Z,1.70
2022-09-30T11:11:07.214Z,1.65
2022-09-30T11:14:11.791Z,1.77
2022-09-30T11:17:03.212Z,2.03
2022-09-30T11:19:50.827Z,1.60
2022-09-30T11:22:33.000Z,1.50
2022-09-30T11:25:10.980Z,2.55
2022-09-30T11:27:53.137Z,2.30
2022-09-30T11:30:49.704Z,2.45
2022-09-30T11:34:00.871Z,2.17
2022-09-30T11:37:09.926Z,2.42
2022-09-30T11:39:51.713Z,2.20
2022-09-30T11:42:38.187Z,2.20
2022-09-30T11:45:41.819Z,2.00
2022-09-30T11:48:14.708Z,2.03
2022-09-30T11:51:08.739Z,1.52
2022-09-30T11:53:50.586Z,1.35
2022-09-30T11:56:48.688Z,1.90
2022-09-30T11:59:25.216Z,1.52
2022-09-30T12:02:00.932Z,1.60
2022-09-30T12:04:50.767Z,1.50
2022-09-30T12:07:25.999Z,1.45
2022-09-30T12:10:20.694Z,1.55
2022-09-30T12:12:53.355Z,1.58
2022-09-30T12:15:30.709Z,1.42
2022-09-30T12:18:11.141Z,1.55
2022-09-30T12:20:59.803Z,1.40
2022-09-30T12:23:52.472Z,1.75
2022-09-30T12:26:19.721Z,1.55
2022-09-30T12:29:25.796Z,1.85
2022-09-30T12:32:09.191Z,2.40
2022-09-30T12:34:51.764Z,2.47
2022-09-30T12:39:59.802Z,3.53
2022-09-30T12:42:33.222Z,3.70
2022-09-30T12:45:15.765Z,3.42
2022-09-30T12:48:02.789Z,3.60
2022-09-30T12:50:49.370Z,3.30
2022-09-30T12:53:42.798Z,3.35
2022-09-30T12:56:15.739Z,3.45
2022-09-30T12:58:57.813Z,3.38
2022-09-30T13:01:26.054Z,2.88
2022-09-30T13:04:23.858Z,2.25
2022-09-30T13:06:50.572Z,2.30
2022-09-30T13:09:23.842Z,2.20
2022-09-30T13:11:59.468Z,2.40
2022-09-30T13:14:47.808Z,1.80
2022-09-30T13:17:23.908Z,2.20
2022-09-30T13:19:54.383Z,1.45
2022-09-30T13:22:27.834Z,1.90
2022-09-30T13:25:12.854Z,1.80
2022-09-30T13:28:18.914Z,2.05
2022-09-30T13:30:51.854Z,1.75
2022-09-30T13:33:47.907Z,2.50
2022-09-30T13:36:33.468Z,2.47
2022-09-30T13:39:31.899Z,2.28
2022-09-30T13:42:10.072Z,2.20
2022-09-30T13:45:14.910Z,2.00
2022-09-30T13:48:27.031Z,1.83
2022-09-30T13:51:01.880Z,2.03
2022-09-30T13:53:45.931Z,2.63
2022-09-30T13:56:33.440Z,2.50
2022-09-30T13:59:30.913Z,1.90
2022-09-30T14:02:09.963Z,1.75
2022-09-30T14:05:13.924Z,1.42
2022-09-30T14:07:41.099Z,1.30
2022-09-30T14:10:48.953Z,1.45
2022-09-30T14:13:49.944Z,2.20
2022-09-30T14:17:00.943Z,2.28
2022-09-30T14:19:45.974Z,2.53
2022-09-30T14:22:15.046Z,3.22
2022-09-30T14:24:49.013Z,2.90
2022-09-30T14:27:33.948Z,2.53
2022-09-30T14:30:22.073Z,2.90
2022-09-30T14:32:58.938Z,3.90
2022-09-30T14:35:29.601Z,3.80
2022-09-30T14:38:19.954Z,4.22
2022-09-30T14:40:53.619Z,3.80
2022-09-30T14:43:42.836Z,3.80
2022-09-30T14:46:34.020Z,4.47
2022-09-30T14:49:12.998Z,4.60
2022-09-30T14:51:50.010Z,5.00
2022-09-30T14:54:23.760Z,4.25
2022-09-30T14:57:01.022Z,4.38
2022-09-30T14:59:31.637Z,3.95
2022-09-30T15:02:30.027Z,4.38
2022-09-30T15:05:05.085Z,3.72
2022-09-30T15:07:37.989Z,3.97
2022-09-30T15:10:11.980Z,3.40
2022-09-30T15:12:42.840Z,3.30
2022-09-30T15:15:52.066Z,3.63
2022-09-30T15:18:35.665Z,3.72
2022-09-30T15:21:17.038Z,3.70
2022-09-30T15:23:58.036Z,3.40
2022-09-30T15:26:26.836Z,3.42
2022-09-30T15:29:01.030Z,3.90
2022-09-30T15:31:29.276Z,4.20
2022-09-30T15:34:12.038Z,4.43
2022-09-30T15:36:39.598Z,4.13
2022-09-30T15:39:24.293Z,4.38
2022-09-30T15:41:59.123Z,4.32
2022-09-30T15:44:45.075Z,3.30
2022-09-30T15:47:19.054Z,3.30
2022-09-30T15:49:56.077Z,3.80
2022-09-30T15:52:42.298Z,3.85
2022-09-30T15:55:42.070Z,4.35
2022-09-30T15:58:37.109Z,4.03
2022-09-30T16:01:28.076Z,3.00
2022-09-30T16:04:03.071Z,3.20
2022-09-30T16:06:35.065Z,3.63
2022-09-30T16:09:28.279Z,2.72
2022-09-30T16:12:19.098Z,3.30
2022-09-30T16:15:14.151Z,2.75
2022-09-30T16:17:53.178Z,3.33
2022-09-30T16:20:25.140Z,2.72
2022-09-30T16:23:01.111Z,3.28
2022-09-30T16:25:33.598Z,3.10
2022-09-30T16:28:20.243Z,2.85
2022-09-30T16:31:01.137Z,2.80
2022-09-30T16:33:27.876Z,3.60
2022-09-30T16:36:01.183Z,3.40
2022-09-30T16:38:34.187Z,2.50
2022-09-30T16:41:10.146Z,2.63
2022-09-30T16:43:38.989Z,2.15
2022-09-30T16:46:13.182Z,2.00
2022-09-30T16:48:40.015Z,3.55
2022-09-30T16:51:23.236Z,2.80
2022-09-30T16:53:50.179Z,2.47
2022-09-30T16:56:26.197Z,3.13
2022-09-30T16:58:52.981Z,3.35
2022-09-30T17:01:31.211Z,2.72
2022-09-30T17:03:58.253Z,3.10
2022-09-30T17:06:36.379Z,2.40
2022-09-30T17:09:11.155Z,3.22
2022-09-30T17:11:45.220Z,2.40
2022-09-30T17:14:11.950Z,2.50
2022-09-30T17:16:45.267Z,2.30
2022-09-30T17:19:12.159Z,3.10
2022-09-30T17:21:45.203Z,2.83
2022-09-30T17:24:12.018Z,2.90
2022-09-30T17:26:45.253Z,3.30
2022-09-30T17:29:31.284Z,3.42
2022-09-30T17:32:05.266Z,3.13
2022-09-30T17:34:38.295Z,2.97
2022-09-30T17:37:12.278Z,3.30
2022-09-30T17:39:39.205Z,3.08
2022-09-30T17:42:33.286Z,3.88
2022-09-30T17:45:00.301Z,4.07
2022-09-30T17:47:34.269Z,4.00
2022-09-30T17:50:12.298Z,3.05
2022-09-30T17:52:39.195Z,3.35
2022-09-30T17:55:06.165Z,3.63
2022-09-30T17:57:46.302Z,3.35
2022-09-30T18:00:20.282Z,3.10
2022-09-30T18:02:48.297Z,3.28
2022-09-30T18:05:15.708Z,3.40
2022-09-30T18:07:49.270Z,2.90
2022-09-30T18:10:23.314Z,3.72
2022-09-30T18:12:51.807Z,4.20
2022-09-30T18:15:27.325Z,3.20
2022-09-30T18:17:54.174Z,3.58
2022-09-30T18:20:23.457Z,2.72
2022-09-30T18:22:59.296Z,3.30
2022-09-30T18:25:26.311Z,2.83
2022-09-30T18:28:09.368Z,2.90
2022-09-30T18:30:40.807Z,4.00
2022-09-30T18:33:23.333Z,3.42
2022-09-30T18:35:58.362Z,3.30
2022-09-30T18:38:25.956Z,4.00
2022-09-30T18:40:53.456Z,3.92
2022-09-30T18:43:29.395Z,4.35
2022-09-30T18:45:57.845Z,3.78
2022-09-30T18:48:32.364Z,3.58
2022-09-30T18:51:10.402Z,3.88
2022-09-30T18:53:43.463Z,3.20
2022-09-30T18:56:17.351Z,3.53
2022-09-30T18:58:50.343Z,4.25
2022-09-30T19:01:17.651Z,3.28
2022-09-30T19:03:44.517Z,3.85
2022-09-30T19:06:18.531Z,3.60
2022-09-30T19:08:45.356Z,3.30
2022-09-30T19:11:21.355Z,3.28
2022-09-30T19:13:50.921Z,3.40
2022-09-30T19:16:25.604Z,3.67
2022-09-30T19:18:52.920Z,3.80
2022-09-30T19:21:28.415Z,3.60
2022-09-30T19:23:58.193Z,3.53
2022-09-30T19:26:35.460Z,3.00
2022-09-30T19:29:03.606Z,3.53
2022-09-30T19:31:37.070Z,3.28
2022-09-30T19:34:05.359Z,3.38
2022-09-30T19:36:49.401Z,3.40
2022-09-30T19:39:18.273Z,2.97
2022-09-30T19:41:52.435Z,3.70
2022-09-30T19:44:26.471Z,3.00
2022-09-30T19:47:01.424Z,3.67
2022-09-30T19:49:34.771Z,3.58
2022-09-30T19:52:18.839Z,3.20
2022-09-30T19:55:02.410Z,3.80
2022-09-30T19:57:40.649Z,3.65
2022-09-30T20:00:08.853Z,3.10
2022-09-30T20:02:42.427Z,3.50
2022-09-30T20:05:10.786Z,3.40
2022-09-30T20:07:46.445Z,3.10
2022-09-30T20:10:13.293Z,3.10
2022-09-30T20:12:46.499Z,3.25
2022-09-30T20:15:31.666Z,2.97
2022-09-30T20:18:04.467Z,3.78
2022-09-30T20:20:37.316Z,2.90
2022-09-30T20:23:10.485Z,2.88
2022-09-30T20:25:38.226Z,3.20
2022-09-30T20:28:12.761Z,3.40
2022-09-30T20:30:45.607Z,3.55
2022-09-30T20:33:21.509Z,3.08
2022-09-30T20:35:48.512Z,3.00
2022-09-30T20:38:28.493Z,2.85
2022-09-30T20:41:03.472Z,2.83
2022-09-30T20:43:39.602Z,3.08
2022-09-30T20:46:14.562Z,3.15
2022-09-30T20:48:47.514Z,2.83
2022-09-30T20:51:25.518Z,3.40
2022-09-30T20:54:00.505Z,3.22
2022-09-30T20:56:39.368Z,3.42
2022-09-30T20:59:23.549Z,2.80
2022-09-30T21:01:50.321Z,3.30
2022-09-30T21:04:23.558Z,2.42
2022-09-30T21:06:50.440Z,2.60
2022-09-30T21:09:23.570Z,3.40
2022-09-30T21:11:56.551Z,2.65
2022-09-30T21:14:23.501Z,3.58
2022-09-30T21:16:57.514Z,2.83
2022-09-30T21:19:24.324Z,3.28
2022-09-30T21:21:51.111Z,3.53
2022-09-30T21:24:24.593Z,3.75
2022-09-30T21:26:51.495Z,3.47
2022-09-30T21:29:25.587Z,3.28
2022-09-30T21:31:52.421Z,3.05
2022-09-30T21:34:25.596Z,3.33
2022-09-30T21:37:06.675Z,3.33
2022-09-30T21:39:46.697Z,3.50
2022-09-30T21:42:13.661Z,3.53
2022-09-30T21:44:40.478Z,3.63
2022-09-30T21:47:13.648Z,3.38
2022-09-30T21:49:40.730Z,3.97
2022-09-30T21:52:15.603Z,3.55
2022-09-30T21:54:42.352Z,3.40
2022-09-30T21:57:15.626Z,3.80
2022-09-30T21:59:46.342Z,3.80
2022-09-30T22:02:22.648Z,3.78
2022-09-30T22:04:49.481Z,4.20
2022-09-30T22:07:22.681Z,4.72
2022-09-30T22:09:49.479Z,4.90
2022-09-30T22:12:22.637Z,4.35
2022-09-30T22:14:49.387Z,4.43
2022-09-30T22:17:22.635Z,5.20
2022-09-30T22:19:49.441Z,5.18
2022-09-30T22:22:22.732Z,5.35
2022-09-30T22:24:49.471Z,5.00
2022-09-30T22:27:16.296Z,5.05
2022-09-30T22:29:49.715Z,5.22
2022-09-30T22:32:16.574Z,5.78
2022-09-30T22:35:08.673Z,5.25
2022-09-30T22:37:53.904Z,5.28
2022-09-30T22:40:27.819Z,5.00
2022-09-30T22:42:54.627Z,5.60
2022-09-30T22:45:27.809Z,4.95
2022-09-30T22:47:55.312Z,5.05
2022-09-30T22:50:28.710Z,5.80
2022-09-30T22:53:01.689Z,5.18
2022-09-30T22:55:36.763Z,6.40
2022-09-30T22:58:09.732Z,6.60
2022-09-30T23:00:42.743Z,6.18
2022-09-30T23:03:16.782Z,6.68
2022-09-30T23:05:43.636Z,6.43
2022-09-30T23:08:17.725Z,6.60
2022-09-30T23:10:56.703Z,6.80
2022-09-30T23:13:30.736Z,6.18
2022-09-30T23:15:58.452Z,7.43
2022-09-30T23:18:32.715Z,7.10
2022-09-30T23:21:05.271Z,7.57
2022-09-30T23:23:40.779Z,7.45
2022-09-30T23:26:15.788Z,7.28
2022-09-30T23:28:49.740Z,6.88
2022-09-30T23:31:24.841Z,7.70
2022-09-30T23:33:54.281Z,6.18
2022-09-30T23:36:33.759Z,7.32
2022-09-30T23:39:05.015Z,7.43
2022-09-30T23:41:44.798Z,6.15
2022-09-30T23:44:12.053Z,5.72
2022-09-30T23:47:05.820Z,5.97
2022-09-30T23:49:35.297Z,6.75
2022-09-30T23:52:13.143Z,6.53
2022-09-30T23:54:41.617Z,7.22
2022-09-30T23:57:14.857Z,6.70
2022-09-30T23:59:41.651Z,6.05
